sensor_id;sensor_type;location;lat;lon;timestamp;P1;durP1;ratioP1;P2;durP2;ratioP2
65234;SDS011;51820;48.374;10.930;2022-12-20T00:00:42;32.70;;;15.57;;
65234;SDS011;51820;48.374;10.930;2022-12-20T00:03:10;28.95;;;15.25;;
65234;SDS011;51820;48.374;10.930;2022-12-20T00:05:39;33.15;;;15.15;;
65234;SDS011;51820;48.374;10.930;2022-12-20T00:08:08;30.38;;;14.52;;
65234;SDS011;51820;48.374;10.930;2022-12-20T00:10:37;31.73;;;14.77;;
65234;SDS011;51820;48.374;10.930;2022-12-20T00:13:07;31.65;;;14.82;;
65234;SDS011;51820;48.374;10.930;2022-12-20T00:15:36;33.15;;;14.88;;
65234;SDS011;51820;48.374;10.930;2022-12-20T00:18:04;32.53;;;15.15;;
65234;SDS011;51820;48.374;10.930;2022-12-20T00:20:36;32.17;;;15.02;;
65234;SDS011;51820;48.374;10.930;2022-12-20T00:23:04;32.55;;;15.65;;
65234;SDS011;51820;48.374;10.930;2022-12-20T00:25:32;33.38;;;15.65;;
65234;SDS011;51820;48.374;10.930;2022-12-20T00:28:01;31.10;;;15.27;;
65234;SDS011;51820;48.374;10.930;2022-12-20T00:30:31;33.45;;;14.73;;
65234;SDS011;51820;48.374;10.930;2022-12-20T00:32:59;28.45;;;13.57;;
65234;SDS011;51820;48.374;10.930;2022-12-20T00:35:27;33.65;;;14.63;;
65234;SDS011;51820;48.374;10.930;2022-12-20T00:37:57;34.15;;;15.48;;
65234;SDS011;51820;48.374;10.930;2022-12-20T00:40:25;33.97;;;14.90;;
65234;SDS011;51820;48.374;10.930;2022-12-20T00:42:54;29.00;;;14.45;;
65234;SDS011;51820;48.374;10.930;2022-12-20T00:45:24;31.67;;;14.55;;
65234;SDS011;51820;48.374;10.930;2022-12-20T00:47:53;29.92;;;14.05;;
65234;SDS011;51820;48.374;10.930;2022-12-20T00:50:23;35.03;;;13.88;;
65234;SDS011;51820;48.374;10.930;2022-12-20T00:52:52;30.27;;;13.88;;
65234;SDS011;51820;48.374;10.930;2022-12-20T00:55:24;29.95;;;14.18;;
65234;SDS011;51820;48.374;10.930;2022-12-20T00:57:52;29.20;;;14.60;;
65234;SDS011;51820;48.374;10.930;2022-12-20T01:00:21;29.48;;;14.63;;
65234;SDS011;51820;48.374;10.930;2022-12-20T01:02:49;30.83;;;15.20;;
65234;SDS011;51820;48.374;10.930;2022-12-20T01:05:19;31.42;;;14.35;;
65234;SDS011;51820;48.374;10.930;2022-12-20T01:07:48;28.65;;;13.98;;
65234;SDS011;51820;48.374;10.930;2022-12-20T01:10:18;37.10;;;15.18;;
65234;SDS011;51820;48.374;10.930;2022-12-20T01:12:46;31.33;;;15.15;;
65234;SDS011;51820;48.374;10.930;2022-12-20T01:15:15;32.80;;;14.70;;
65234;SDS011;51820;48.374;10.930;2022-12-20T01:17:43;31.60;;;14.40;;
65234;SDS011;51820;48.374;10.930;2022-12-20T01:20:12;27.20;;;14.02;;
65234;SDS011;51820;48.374;10.930;2022-12-20T01:22:42;29.80;;;14.90;;
65234;SDS011;51820;48.374;10.930;2022-12-20T01:25:13;29.58;;;14.73;;
65234;SDS011;51820;48.374;10.930;2022-12-20T01:27:41;33.10;;;15.35;;
65234;SDS011;51820;48.374;10.930;2022-12-20T01:30:11;28.77;;;13.75;;
65234;SDS011;51820;48.374;10.930;2022-12-20T01:32:40;32.13;;;14.77;;
65234;SDS011;51820;48.374;10.930;2022-12-20T01:35:09;31.58;;;15.00;;
65234;SDS011;51820;48.374;10.930;2022-12-20T01:37:37;33.40;;;15.73;;
65234;SDS011;51820;48.374;10.930;2022-12-20T01:40:08;27.38;;;14.05;;
65234;SDS011;51820;48.374;10.930;2022-12-20T01:42:36;34.13;;;15.55;;
65234;SDS011;51820;48.374;10.930;2022-12-20T01:45:07;31.40;;;14.60;;
65234;SDS011;51820;48.374;10.930;2022-12-20T01:47:39;34.65;;;13.93;;
65234;SDS011;51820;48.374;10.930;2022-12-20T01:50:08;27.73;;;13.77;;
65234;SDS011;51820;48.374;10.930;2022-12-20T01:52:37;27.20;;;13.73;;
65234;SDS011;51820;48.374;10.930;2022-12-20T01:55:11;29.25;;;13.75;;
65234;SDS011;51820;48.374;10.930;2022-12-20T01:57:44;29.70;;;13.67;;
65234;SDS011;51820;48.374;10.930;2022-12-20T02:00:14;29.63;;;13.52;;
65234;SDS011;51820;48.374;10.930;2022-12-20T02:02:44;28.52;;;13.63;;
65234;SDS011;51820;48.374;10.930;2022-12-20T02:05:15;28.75;;;13.30;;
65234;SDS011;51820;48.374;10.930;2022-12-20T02:07:45;25.88;;;12.98;;
65234;SDS011;51820;48.374;10.930;2022-12-20T02:10:19;29.30;;;12.30;;
65234;SDS011;51820;48.374;10.930;2022-12-20T02:12:51;30.08;;;14.05;;
65234;SDS011;51820;48.374;10.930;2022-12-20T02:15:31;28.55;;;14.15;;
65234;SDS011;51820;48.374;10.930;2022-12-20T02:18:11;29.15;;;14.35;;
65234;SDS011;51820;48.374;10.930;2022-12-20T02:29:59;32.13;;;13.52;;
65234;SDS011;51820;48.374;10.930;2022-12-20T02:32:32;30.38;;;14.38;;
65234;SDS011;51820;48.374;10.930;2022-12-20T02:35:05;29.70;;;13.40;;
65234;SDS011;51820;48.374;10.930;2022-12-20T02:37:35;31.02;;;14.38;;
65234;SDS011;51820;48.374;10.930;2022-12-20T02:40:04;35.25;;;14.70;;
65234;SDS011;51820;48.374;10.930;2022-12-20T02:42:33;23.98;;;13.10;;
65234;SDS011;51820;48.374;10.930;2022-12-20T02:45:04;27.52;;;13.70;;
65234;SDS011;51820;48.374;10.930;2022-12-20T02:47:45;25.65;;;12.75;;
65234;SDS011;51820;48.374;10.930;2022-12-20T02:50:17;24.70;;;11.95;;
65234;SDS011;51820;48.374;10.930;2022-12-20T02:52:49;25.52;;;11.43;;
65234;SDS011;51820;48.374;10.930;2022-12-20T02:55:18;25.75;;;11.38;;
65234;SDS011;51820;48.374;10.930;2022-12-20T02:57:53;25.08;;;12.18;;
65234;SDS011;51820;48.374;10.930;2022-12-20T03:00:28;24.98;;;12.27;;
65234;SDS011;51820;48.374;10.930;2022-12-20T03:03:02;24.17;;;12.57;;
65234;SDS011;51820;48.374;10.930;2022-12-20T03:05:51;29.83;;;13.02;;
65234;SDS011;51820;48.374;10.930;2022-12-20T03:08:21;25.17;;;11.95;;
65234;SDS011;51820;48.374;10.930;2022-12-20T03:10:53;30.50;;;12.95;;
65234;SDS011;51820;48.374;10.930;2022-12-20T03:13:22;27.75;;;12.98;;
65234;SDS011;51820;48.374;10.930;2022-12-20T03:16:00;29.63;;;12.80;;
65234;SDS011;51820;48.374;10.930;2022-12-20T03:18:28;28.15;;;13.07;;
65234;SDS011;51820;48.374;10.930;2022-12-20T03:20:57;26.75;;;13.07;;
65234;SDS011;51820;48.374;10.930;2022-12-20T03:23:25;28.50;;;12.52;;
65234;SDS011;51820;48.374;10.930;2022-12-20T03:25:54;25.40;;;12.13;;
65234;SDS011;51820;48.374;10.930;2022-12-20T03:28:29;26.70;;;13.27;;
65234;SDS011;51820;48.374;10.930;2022-12-20T03:31:00;25.17;;;11.57;;
65234;SDS011;51820;48.374;10.930;2022-12-20T03:33:36;23.88;;;11.27;;
65234;SDS011;51820;48.374;10.930;2022-12-20T03:36:06;24.17;;;11.15;;
65234;SDS011;51820;48.374;10.930;2022-12-20T03:38:35;24.95;;;11.65;;
65234;SDS011;51820;48.374;10.930;2022-12-20T03:41:05;24.27;;;12.25;;
65234;SDS011;51820;48.374;10.930;2022-12-20T03:43:34;26.90;;;12.55;;
65234;SDS011;51820;48.374;10.930;2022-12-20T03:46:04;24.17;;;11.32;;
65234;SDS011;51820;48.374;10.930;2022-12-20T03:48:36;26.85;;;11.48;;
65234;SDS011;51820;48.374;10.930;2022-12-20T03:51:06;21.45;;;11.30;;
65234;SDS011;51820;48.374;10.930;2022-12-20T03:53:34;22.85;;;11.57;;
65234;SDS011;51820;48.374;10.930;2022-12-20T03:56:03;26.05;;;12.52;;
65234;SDS011;51820;48.374;10.930;2022-12-20T03:58:31;24.52;;;11.60;;
65234;SDS011;51820;48.374;10.930;2022-12-20T04:01:00;23.42;;;11.27;;
65234;SDS011;51820;48.374;10.930;2022-12-20T04:03:40;26.10;;;12.52;;
65234;SDS011;51820;48.374;10.930;2022-12-20T04:06:08;25.25;;;12.02;;
65234;SDS011;51820;48.374;10.930;2022-12-20T04:08:36;21.73;;;10.98;;
65234;SDS011;51820;48.374;10.930;2022-12-20T04:11:05;24.38;;;12.00;;
65234;SDS011;51820;48.374;10.930;2022-12-20T04:13:51;24.85;;;11.82;;
65234;SDS011;51820;48.374;10.930;2022-12-20T04:16:21;25.27;;;11.32;;
65234;SDS011;51820;48.374;10.930;2022-12-20T04:18:56;21.98;;;11.10;;
65234;SDS011;51820;48.374;10.930;2022-12-20T04:21:30;24.13;;;11.13;;
65234;SDS011;51820;48.374;10.930;2022-12-20T04:24:02;23.08;;;11.15;;
65234;SDS011;51820;48.374;10.930;2022-12-20T04:26:54;22.10;;;10.25;;
65234;SDS011;51820;48.374;10.930;2022-12-20T04:29:24;22.75;;;11.00;;
65234;SDS011;51820;48.374;10.930;2022-12-20T04:31:53;25.52;;;10.88;;
65234;SDS011;51820;48.374;10.930;2022-12-20T04:34:23;23.20;;;11.27;;
65234;SDS011;51820;48.374;10.930;2022-12-20T04:36:51;26.25;;;11.25;;
65234;SDS011;51820;48.374;10.930;2022-12-20T04:39:34;22.80;;;11.48;;
65234;SDS011;51820;48.374;10.930;2022-12-20T04:42:16;21.42;;;10.95;;
65234;SDS011;51820;48.374;10.930;2022-12-20T04:44:47;24.95;;;12.77;;
65234;SDS011;51820;48.374;10.930;2022-12-20T04:47:20;23.48;;;10.60;;
65234;SDS011;51820;48.374;10.930;2022-12-20T04:49:52;23.20;;;11.73;;
65234;SDS011;51820;48.374;10.930;2022-12-20T04:52:20;21.60;;;11.02;;
65234;SDS011;51820;48.374;10.930;2022-12-20T04:55:13;20.65;;;10.32;;
65234;SDS011;51820;48.374;10.930;2022-12-20T04:57:42;22.17;;;10.68;;
65234;SDS011;51820;48.374;10.930;2022-12-20T05:00:11;20.55;;;9.88;;
65234;SDS011;51820;48.374;10.930;2022-12-20T05:02:47;20.92;;;11.30;;
65234;SDS011;51820;48.374;10.930;2022-12-20T05:05:22;23.70;;;11.05;;
65234;SDS011;51820;48.374;10.930;2022-12-20T05:07:53;22.13;;;10.85;;
65234;SDS011;51820;48.374;10.930;2022-12-20T05:10:22;21.10;;;10.63;;
65234;SDS011;51820;48.374;10.930;2022-12-20T05:12:52;24.80;;;11.50;;
65234;SDS011;51820;48.374;10.930;2022-12-20T05:15:35;20.70;;;10.05;;
65234;SDS011;51820;48.374;10.930;2022-12-20T05:18:04;19.83;;;10.70;;
65234;SDS011;51820;48.374;10.930;2022-12-20T05:20:49;21.00;;;10.57;;
65234;SDS011;51820;48.374;10.930;2022-12-20T05:23:38;21.75;;;10.10;;
65234;SDS011;51820;48.374;10.930;2022-12-20T05:26:26;24.55;;;10.60;;
65234;SDS011;51820;48.374;10.930;2022-12-20T05:28:57;19.33;;;9.93;;
65234;SDS011;51820;48.374;10.930;2022-12-20T05:31:26;19.80;;;10.77;;
65234;SDS011;51820;48.374;10.930;2022-12-20T05:34:05;23.35;;;10.13;;
65234;SDS011;51820;48.374;10.930;2022-12-20T05:36:37;22.42;;;10.18;;
65234;SDS011;51820;48.374;10.930;2022-12-20T05:39:06;21.20;;;9.80;;
65234;SDS011;51820;48.374;10.930;2022-12-20T05:41:39;22.90;;;10.27;;
65234;SDS011;51820;48.374;10.930;2022-12-20T05:44:09;23.00;;;10.57;;
65234;SDS011;51820;48.374;10.930;2022-12-20T05:46:41;26.90;;;11.05;;
65234;SDS011;51820;48.374;10.930;2022-12-20T05:49:15;19.85;;;10.13;;
65234;SDS011;51820;48.374;10.930;2022-12-20T05:51:45;23.95;;;10.60;;
65234;SDS011;51820;48.374;10.930;2022-12-20T05:54:33;19.45;;;9.25;;
65234;SDS011;51820;48.374;10.930;2022-12-20T05:57:09;22.58;;;10.57;;
65234;SDS011;51820;48.374;10.930;2022-12-20T05:59:39;22.92;;;9.82;;
65234;SDS011;51820;48.374;10.930;2022-12-20T06:02:16;27.80;;;11.98;;
65234;SDS011;51820;48.374;10.930;2022-12-20T06:04:48;23.13;;;10.93;;
65234;SDS011;51820;48.374;10.930;2022-12-20T06:07:23;25.55;;;12.23;;
65234;SDS011;51820;48.374;10.930;2022-12-20T06:09:57;24.00;;;11.32;;
65234;SDS011;51820;48.374;10.930;2022-12-20T06:12:52;24.70;;;11.48;;
65234;SDS011;51820;48.374;10.930;2022-12-20T06:15:40;25.92;;;11.15;;
65234;SDS011;51820;48.374;10.930;2022-12-20T06:18:20;22.73;;;10.70;;
65234;SDS011;51820;48.374;10.930;2022-12-20T06:20:53;24.08;;;11.25;;
65234;SDS011;51820;48.374;10.930;2022-12-20T06:26:22;24.02;;;11.00;;
65234;SDS011;51820;48.374;10.930;2022-12-20T06:28:52;25.45;;;11.25;;
65234;SDS011;51820;48.374;10.930;2022-12-20T06:31:42;22.73;;;10.35;;
65234;SDS011;51820;48.374;10.930;2022-12-20T06:34:12;24.35;;;10.88;;
65234;SDS011;51820;48.374;10.930;2022-12-20T06:36:42;22.30;;;9.98;;
65234;SDS011;51820;48.374;10.930;2022-12-20T06:39:17;18.45;;;9.60;;
65234;SDS011;51820;48.374;10.930;2022-12-20T06:41:54;21.92;;;10.25;;
65234;SDS011;51820;48.374;10.930;2022-12-20T06:44:25;20.27;;;10.02;;
65234;SDS011;51820;48.374;10.930;2022-12-20T06:46:54;23.42;;;10.38;;
65234;SDS011;51820;48.374;10.930;2022-12-20T06:49:29;21.75;;;10.90;;
65234;SDS011;51820;48.374;10.930;2022-12-20T06:52:08;25.00;;;11.38;;
65234;SDS011;51820;48.374;10.930;2022-12-20T06:54:49;27.05;;;11.73;;
65234;SDS011;51820;48.374;10.930;2022-12-20T06:57:19;23.20;;;10.65;;
65234;SDS011;51820;48.374;10.930;2022-12-20T06:59:48;25.35;;;11.40;;
65234;SDS011;51820;48.374;10.930;2022-12-20T07:02:16;29.75;;;12.75;;
65234;SDS011;51820;48.374;10.930;2022-12-20T07:04:45;24.92;;;11.57;;
65234;SDS011;51820;48.374;10.930;2022-12-20T07:07:35;23.13;;;11.20;;
65234;SDS011;51820;48.374;10.930;2022-12-20T07:10:12;23.83;;;10.13;;
65234;SDS011;51820;48.374;10.930;2022-12-20T07:12:44;27.88;;;11.60;;
65234;SDS011;51820;48.374;10.930;2022-12-20T07:15:14;23.90;;;10.63;;
65234;SDS011;51820;48.374;10.930;2022-12-20T07:17:42;20.55;;;10.05;;
65234;SDS011;51820;48.374;10.930;2022-12-20T07:20:11;19.65;;;9.65;;
65234;SDS011;51820;48.374;10.930;2022-12-20T07:22:43;21.48;;;10.20;;
65234;SDS011;51820;48.374;10.930;2022-12-20T07:25:16;19.80;;;9.85;;
65234;SDS011;51820;48.374;10.930;2022-12-20T07:27:45;25.63;;;10.93;;
65234;SDS011;51820;48.374;10.930;2022-12-20T07:30:17;24.10;;;10.32;;
65234;SDS011;51820;48.374;10.930;2022-12-20T07:32:47;22.55;;;10.20;;
65234;SDS011;51820;48.374;10.930;2022-12-20T07:35:15;21.80;;;10.90;;
65234;SDS011;51820;48.374;10.930;2022-12-20T07:37:44;26.40;;;12.48;;
65234;SDS011;51820;48.374;10.930;2022-12-20T07:40:13;27.15;;;11.15;;
65234;SDS011;51820;48.374;10.930;2022-12-20T07:42:43;20.35;;;9.35;;
65234;SDS011;51820;48.374;10.930;2022-12-20T07:45:14;21.17;;;9.27;;
65234;SDS011;51820;48.374;10.930;2022-12-20T07:47:44;17.83;;;8.10;;
65234;SDS011;51820;48.374;10.930;2022-12-20T07:50:13;17.38;;;8.65;;
65234;SDS011;51820;48.374;10.930;2022-12-20T07:52:42;19.63;;;9.55;;
65234;SDS011;51820;48.374;10.930;2022-12-20T07:55:14;16.15;;;8.23;;
65234;SDS011;51820;48.374;10.930;2022-12-20T07:57:45;18.85;;;7.80;;
65234;SDS011;51820;48.374;10.930;2022-12-20T08:00:20;17.92;;;9.25;;
65234;SDS011;51820;48.374;10.930;2022-12-20T08:02:55;18.38;;;9.05;;
65234;SDS011;51820;48.374;10.930;2022-12-20T08:05:27;22.20;;;10.27;;
65234;SDS011;51820;48.374;10.930;2022-12-20T08:07:59;19.63;;;9.35;;
65234;SDS011;51820;48.374;10.930;2022-12-20T08:10:29;21.40;;;9.70;;
65234;SDS011;51820;48.374;10.930;2022-12-20T08:12:59;29.30;;;11.63;;
65234;SDS011;51820;48.374;10.930;2022-12-20T08:15:34;29.45;;;13.60;;
65234;SDS011;51820;48.374;10.930;2022-12-20T08:18:05;31.55;;;14.07;;
65234;SDS011;51820;48.374;10.930;2022-12-20T08:20:34;29.42;;;14.90;;
65234;SDS011;51820;48.374;10.930;2022-12-20T08:23:02;31.58;;;15.05;;
65234;SDS011;51820;48.374;10.930;2022-12-20T08:25:32;30.85;;;15.40;;
65234;SDS011;51820;48.374;10.930;2022-12-20T08:28:08;28.55;;;14.35;;
65234;SDS011;51820;48.374;10.930;2022-12-20T08:30:36;32.38;;;14.30;;
65234;SDS011;51820;48.374;10.930;2022-12-20T08:33:05;30.50;;;15.02;;
65234;SDS011;51820;48.374;10.930;2022-12-20T08:35:33;30.55;;;13.65;;
65234;SDS011;51820;48.374;10.930;2022-12-20T08:38:02;25.75;;;13.52;;
65234;SDS011;51820;48.374;10.930;2022-12-20T08:40:30;25.30;;;13.85;;
65234;SDS011;51820;48.374;10.930;2022-12-20T08:42:59;25.38;;;13.45;;
65234;SDS011;51820;48.374;10.930;2022-12-20T08:45:37;26.17;;;13.30;;
65234;SDS011;51820;48.374;10.930;2022-12-20T08:48:05;23.13;;;12.73;;
65234;SDS011;51820;48.374;10.930;2022-12-20T08:50:33;23.17;;;12.25;;
65234;SDS011;51820;48.374;10.930;2022-12-20T08:53:02;22.00;;;11.05;;
65234;SDS011;51820;48.374;10.930;2022-12-20T08:55:31;21.63;;;10.65;;
65234;SDS011;51820;48.374;10.930;2022-12-20T08:57:59;25.98;;;11.55;;
65234;SDS011;51820;48.374;10.930;2022-12-20T09:00:28;22.52;;;11.40;;
65234;SDS011;51820;48.374;10.930;2022-12-20T09:02:57;22.33;;;12.15;;
65234;SDS011;51820;48.374;10.930;2022-12-20T09:05:28;23.05;;;12.00;;
65234;SDS011;51820;48.374;10.930;2022-12-20T09:07:57;20.83;;;10.30;;
65234;SDS011;51820;48.374;10.930;2022-12-20T09:10:26;23.65;;;11.13;;
65234;SDS011;51820;48.374;10.930;2022-12-20T09:12:55;22.70;;;10.32;;
65234;SDS011;51820;48.374;10.930;2022-12-20T09:15:23;23.58;;;11.55;;
65234;SDS011;51820;48.374;10.930;2022-12-20T09:17:53;28.75;;;11.70;;
65234;SDS011;51820;48.374;10.930;2022-12-20T09:20:23;21.95;;;9.75;;
65234;SDS011;51820;48.374;10.930;2022-12-20T09:22:51;20.48;;;10.55;;
65234;SDS011;51820;48.374;10.930;2022-12-20T09:25:19;21.75;;;10.38;;
65234;SDS011;51820;48.374;10.930;2022-12-20T09:27:48;20.30;;;10.75;;
65234;SDS011;51820;48.374;10.930;2022-12-20T09:30:17;21.67;;;11.93;;
65234;SDS011;51820;48.374;10.930;2022-12-20T09:32:45;24.10;;;12.50;;
65234;SDS011;51820;48.374;10.930;2022-12-20T09:35:13;26.38;;;12.00;;
65234;SDS011;51820;48.374;10.930;2022-12-20T09:37:49;24.27;;;13.17;;
65234;SDS011;51820;48.374;10.930;2022-12-20T09:40:18;26.15;;;12.93;;
65234;SDS011;51820;48.374;10.930;2022-12-20T09:42:48;23.95;;;12.63;;
65234;SDS011;51820;48.374;10.930;2022-12-20T09:45:23;30.02;;;12.55;;
65234;SDS011;51820;48.374;10.930;2022-12-20T09:47:53;29.10;;;12.85;;
65234;SDS011;51820;48.374;10.930;2022-12-20T09:50:30;22.67;;;12.65;;
65234;SDS011;51820;48.374;10.930;2022-12-20T09:53:13;22.90;;;12.32;;
65234;SDS011;51820;48.374;10.930;2022-12-20T09:55:52;25.00;;;12.43;;
65234;SDS011;51820;48.374;10.930;2022-12-20T09:58:30;23.42;;;12.30;;
65234;SDS011;51820;48.374;10.930;2022-12-20T10:01:15;27.08;;;12.55;;
65234;SDS011;51820;48.374;10.930;2022-12-20T10:03:51;25.73;;;13.02;;
65234;SDS011;51820;48.374;10.930;2022-12-20T10:06:22;23.85;;;12.45;;
65234;SDS011;51820;48.374;10.930;2022-12-20T10:09:01;24.70;;;12.05;;
65234;SDS011;51820;48.374;10.930;2022-12-20T10:11:34;26.80;;;12.00;;
65234;SDS011;51820;48.374;10.930;2022-12-20T10:14:21;22.85;;;11.63;;
65234;SDS011;51820;48.374;10.930;2022-12-20T10:17:01;21.70;;;11.23;;
65234;SDS011;51820;48.374;10.930;2022-12-20T10:19:37;19.42;;;10.60;;
65234;SDS011;51820;48.374;10.930;2022-12-20T10:22:22;21.40;;;11.40;;
65234;SDS011;51820;48.374;10.930;2022-12-20T10:24:57;27.90;;;14.45;;
65234;SDS011;51820;48.374;10.930;2022-12-20T10:27:28;26.42;;;12.75;;
65234;SDS011;51820;48.374;10.930;2022-12-20T10:30:01;23.17;;;11.48;;
65234;SDS011;51820;48.374;10.930;2022-12-20T10:32:31;21.80;;;11.23;;
65234;SDS011;51820;48.374;10.930;2022-12-20T10:35:14;23.58;;;10.75;;
65234;SDS011;51820;48.374;10.930;2022-12-20T10:37:55;21.80;;;11.00;;
65234;SDS011;51820;48.374;10.930;2022-12-20T10:40:35;23.33;;;10.52;;
65234;SDS011;51820;48.374;10.930;2022-12-20T10:43:25;21.80;;;10.73;;
65234;SDS011;51820;48.374;10.930;2022-12-20T10:45:55;20.42;;;10.65;;
65234;SDS011;51820;48.374;10.930;2022-12-20T10:48:28;20.95;;;10.55;;
65234;SDS011;51820;48.374;10.930;2022-12-20T10:50:59;21.77;;;12.32;;
65234;SDS011;51820;48.374;10.930;2022-12-20T10:53:30;22.77;;;12.57;;
65234;SDS011;51820;48.374;10.930;2022-12-20T10:56:14;23.08;;;11.40;;
65234;SDS011;51820;48.374;10.930;2022-12-20T10:58:55;26.10;;;11.68;;
65234;SDS011;51820;48.374;10.930;2022-12-20T11:01:27;23.27;;;11.18;;
65234;SDS011;51820;48.374;10.930;2022-12-20T11:03:58;23.25;;;11.00;;
65234;SDS011;51820;48.374;10.930;2022-12-20T11:06:38;22.05;;;10.85;;
65234;SDS011;51820;48.374;10.930;2022-12-20T11:12:04;21.65;;;11.07;;
65234;SDS011;51820;48.374;10.930;2022-12-20T11:14:34;22.05;;;11.07;;
65234;SDS011;51820;48.374;10.930;2022-12-20T11:17:13;23.23;;;11.25;;
65234;SDS011;51820;48.374;10.930;2022-12-20T11:20:08;25.55;;;12.05;;
65234;SDS011;51820;48.374;10.930;2022-12-20T11:22:50;22.65;;;11.35;;
65234;SDS011;51820;48.374;10.930;2022-12-20T11:25:30;25.48;;;11.57;;
65234;SDS011;51820;48.374;10.930;2022-12-20T11:28:12;25.70;;;12.57;;
65234;SDS011;51820;48.374;10.930;2022-12-20T11:30:53;22.98;;;12.63;;
65234;SDS011;51820;48.374;10.930;2022-12-20T11:33:39;24.95;;;12.40;;
65234;SDS011;51820;48.374;10.930;2022-12-20T11:36:34;24.48;;;11.20;;
65234;SDS011;51820;48.374;10.930;2022-12-20T11:39:18;24.25;;;12.23;;
65234;SDS011;51820;48.374;10.930;2022-12-20T11:41:54;21.65;;;11.48;;
65234;SDS011;51820;48.374;10.930;2022-12-20T11:44:31;28.77;;;13.77;;
65234;SDS011;51820;48.374;10.930;2022-12-20T11:47:24;28.98;;;14.73;;
65234;SDS011;51820;48.374;10.930;2022-12-20T11:50:10;32.75;;;15.35;;
65234;SDS011;51820;48.374;10.930;2022-12-20T11:52:50;26.27;;;14.18;;
65234;SDS011;51820;48.374;10.930;2022-12-20T11:55:21;27.30;;;13.73;;
65234;SDS011;51820;48.374;10.930;2022-12-20T11:57:56;27.80;;;14.43;;
65234;SDS011;51820;48.374;10.930;2022-12-20T12:00:46;23.90;;;12.82;;
65234;SDS011;51820;48.374;10.930;2022-12-20T12:03:22;23.35;;;11.93;;
65234;SDS011;51820;48.374;10.930;2022-12-20T12:05:55;21.83;;;10.82;;
65234;SDS011;51820;48.374;10.930;2022-12-20T12:08:29;23.08;;;11.60;;
65234;SDS011;51820;48.374;10.930;2022-12-20T12:11:05;22.08;;;10.43;;
65234;SDS011;51820;48.374;10.930;2022-12-20T12:14:03;61.67;;;30.33;;
65234;SDS011;51820;48.374;10.930;2022-12-20T12:16:38;54.20;;;24.45;;
65234;SDS011;51820;48.374;10.930;2022-12-20T12:19:10;32.35;;;14.82;;
65234;SDS011;51820;48.374;10.930;2022-12-20T12:21:42;24.48;;;12.50;;
65234;SDS011;51820;48.374;10.930;2022-12-20T12:24:20;21.25;;;11.85;;
65234;SDS011;51820;48.374;10.930;2022-12-20T12:26:54;19.75;;;10.38;;
65234;SDS011;51820;48.374;10.930;2022-12-20T12:29:25;20.33;;;10.82;;
65234;SDS011;51820;48.374;10.930;2022-12-20T12:31:59;19.98;;;10.48;;
65234;SDS011;51820;48.374;10.930;2022-12-20T12:34:36;19.83;;;10.15;;
65234;SDS011;51820;48.374;10.930;2022-12-20T12:37:26;19.88;;;10.90;;
65234;SDS011;51820;48.374;10.930;2022-12-20T12:40:11;20.13;;;10.50;;
65234;SDS011;51820;48.374;10.930;2022-12-20T12:42:54;22.08;;;11.00;;
65234;SDS011;51820;48.374;10.930;2022-12-20T12:45:43;18.98;;;10.32;;
65234;SDS011;51820;48.374;10.930;2022-12-20T12:48:17;20.95;;;10.27;;
65234;SDS011;51820;48.374;10.930;2022-12-20T12:50:49;20.70;;;10.80;;
65234;SDS011;51820;48.374;10.930;2022-12-20T12:53:19;21.20;;;11.70;;
65234;SDS011;51820;48.374;10.930;2022-12-20T12:55:50;23.88;;;11.57;;
65234;SDS011;51820;48.374;10.930;2022-12-20T12:58:38;21.02;;;11.27;;
65234;SDS011;51820;48.374;10.930;2022-12-20T13:01:14;20.50;;;10.85;;
65234;SDS011;51820;48.374;10.930;2022-12-20T13:04:26;19.85;;;11.10;;
65234;SDS011;51820;48.374;10.930;2022-12-20T13:07:02;23.63;;;12.25;;
65234;SDS011;51820;48.374;10.930;2022-12-20T13:09:50;23.23;;;11.57;;
65234;SDS011;51820;48.374;10.930;2022-12-20T13:21:40;19.35;;;10.25;;
65234;SDS011;51820;48.374;10.930;2022-12-20T13:27:01;26.15;;;11.82;;
65234;SDS011;51820;48.374;10.930;2022-12-20T13:29:32;27.00;;;12.57;;
65234;SDS011;51820;48.374;10.930;2022-12-20T13:32:01;22.60;;;12.88;;
65234;SDS011;51820;48.374;10.930;2022-12-20T13:34:34;23.38;;;12.30;;
65234;SDS011;51820;48.374;10.930;2022-12-20T13:40:22;25.05;;;12.73;;
65234;SDS011;51820;48.374;10.930;2022-12-20T13:42:58;22.88;;;12.10;;
65234;SDS011;51820;48.374;10.930;2022-12-20T13:45:32;29.20;;;12.77;;
65234;SDS011;51820;48.374;10.930;2022-12-20T13:48:01;24.52;;;13.07;;
65234;SDS011;51820;48.374;10.930;2022-12-20T13:50:37;22.25;;;11.95;;
65234;SDS011;51820;48.374;10.930;2022-12-20T13:53:15;23.83;;;13.32;;
65234;SDS011;51820;48.374;10.930;2022-12-20T13:55:44;23.38;;;12.23;;
65234;SDS011;51820;48.374;10.930;2022-12-20T13:58:15;23.73;;;11.82;;
65234;SDS011;51820;48.374;10.930;2022-12-20T14:00:45;20.60;;;11.75;;
65234;SDS011;51820;48.374;10.930;2022-12-20T14:03:19;20.25;;;11.98;;
65234;SDS011;51820;48.374;10.930;2022-12-20T14:05:50;18.83;;;11.57;;
65234;SDS011;51820;48.374;10.930;2022-12-20T14:08:25;21.17;;;11.93;;
65234;SDS011;51820;48.374;10.930;2022-12-20T14:11:05;25.60;;;12.82;;
65234;SDS011;51820;48.374;10.930;2022-12-20T14:13:36;20.90;;;11.23;;
65234;SDS011;51820;48.374;10.930;2022-12-20T14:16:09;22.65;;;12.38;;
65234;SDS011;51820;48.374;10.930;2022-12-20T14:18:41;27.30;;;12.80;;
65234;SDS011;51820;48.374;10.930;2022-12-20T14:21:11;27.50;;;15.10;;
65234;SDS011;51820;48.374;10.930;2022-12-20T14:23:42;25.05;;;13.65;;
65234;SDS011;51820;48.374;10.930;2022-12-20T14:26:13;27.27;;;14.23;;
65234;SDS011;51820;48.374;10.930;2022-12-20T14:28:45;25.88;;;14.68;;
65234;SDS011;51820;48.374;10.930;2022-12-20T14:31:23;25.60;;;14.20;;
65234;SDS011;51820;48.374;10.930;2022-12-20T14:33:59;22.27;;;13.18;;
65234;SDS011;51820;48.374;10.930;2022-12-20T14:36:35;26.02;;;12.70;;
65234;SDS011;51820;48.374;10.930;2022-12-20T14:41:56;23.65;;;11.18;;
65234;SDS011;51820;48.374;10.930;2022-12-20T14:44:26;20.08;;;11.38;;
65234;SDS011;51820;48.374;10.930;2022-12-20T14:46:56;22.92;;;12.50;;
65234;SDS011;51820;48.374;10.930;2022-12-20T14:49:26;20.65;;;10.98;;
65234;SDS011;51820;48.374;10.930;2022-12-20T14:52:10;20.45;;;11.15;;
65234;SDS011;51820;48.374;10.930;2022-12-20T14:54:44;19.10;;;11.18;;
65234;SDS011;51820;48.374;10.930;2022-12-20T14:57:38;24.85;;;11.60;;
65234;SDS011;51820;48.374;10.930;2022-12-20T15:00:14;23.17;;;11.20;;
65234;SDS011;51820;48.374;10.930;2022-12-20T15:02:55;20.80;;;11.85;;
65234;SDS011;51820;48.374;10.930;2022-12-20T15:08:29;26.60;;;12.25;;
65234;SDS011;51820;48.374;10.930;2022-12-20T15:11:00;23.80;;;12.25;;
65234;SDS011;51820;48.374;10.930;2022-12-20T15:13:39;21.33;;;12.27;;
65234;SDS011;51820;48.374;10.930;2022-12-20T15:16:12;23.35;;;12.30;;
65234;SDS011;51820;48.374;10.930;2022-12-20T15:18:43;25.05;;;12.90;;
65234;SDS011;51820;48.374;10.930;2022-12-20T15:21:13;23.60;;;12.63;;